sensor_id;sensor_type;location;lat;lon;timestamp;P1;durP1;ratioP1;P2;durP2;ratioP2
47349;SDS011;33088;51.982;5.872;2022-08-18T00:00:35;30.63;;;26.42;;
47349;SDS011;33088;51.982;5.872;2022-08-18T00:03:06;32.53;;;28.55;;
47349;SDS011;33088;51.982;5.872;2022-08-18T00:05:33;29.35;;;26.23;;
47349;SDS011;33088;51.982;5.872;2022-08-18T00:07:59;35.67;;;28.80;;
47349;SDS011;33088;51.982;5.872;2022-08-18T00:10:25;31.98;;;28.52;;
47349;SDS011;33088;51.982;5.872;2022-08-18T00:12:52;40.13;;;30.60;;
47349;SDS011;33088;51.982;5.872;2022-08-18T00:15:18;31.80;;;27.88;;
47349;SDS011;33088;51.982;5.872;2022-08-18T00:17:44;32.05;;;27.42;;
47349;SDS011;33088;51.982;5.872;2022-08-18T00:20:14;33.17;;;28.85;;
47349;SDS011;33088;51.982;5.872;2022-08-18T00:22:44;35.58;;;29.10;;
47349;SDS011;33088;51.982;5.872;2022-08-18T00:25:11;32.05;;;27.30;;
47349;SDS011;33088;51.982;5.872;2022-08-18T00:27:40;30.85;;;27.33;;
47349;SDS011;33088;51.982;5.872;2022-08-18T00:30:07;31.33;;;27.92;;
47349;SDS011;33088;51.982;5.872;2022-08-18T00:32:38;31.45;;;27.17;;
47349;SDS011;33088;51.982;5.872;2022-08-18T00:35:12;31.77;;;26.65;;
47349;SDS011;33088;51.982;5.872;2022-08-18T00:37:42;32.15;;;25.73;;
47349;SDS011;33088;51.982;5.872;2022-08-18T00:40:09;33.63;;;28.13;;
47349;SDS011;33088;51.982;5.872;2022-08-18T00:42:43;34.85;;;27.10;;
47349;SDS011;33088;51.982;5.872;2022-08-18T00:45:15;29.85;;;25.67;;
47349;SDS011;33088;51.982;5.872;2022-08-18T00:47:44;27.13;;;24.08;;
47349;SDS011;33088;51.982;5.872;2022-08-18T00:50:15;27.48;;;24.17;;
47349;SDS011;33088;51.982;5.872;2022-08-18T00:52:53;26.60;;;23.25;;
47349;SDS011;33088;51.982;5.872;2022-08-18T00:55:22;30.48;;;24.67;;
47349;SDS011;33088;51.982;5.872;2022-08-18T00:57:49;34.80;;;26.88;;
47349;SDS011;33088;51.982;5.872;2022-08-18T01:00:19;30.05;;;25.45;;
47349;SDS011;33088;51.982;5.872;2022-08-18T01:02:47;31.33;;;26.35;;
47349;SDS011;33088;51.982;5.872;2022-08-18T01:05:21;31.52;;;25.50;;
47349;SDS011;33088;51.982;5.872;2022-08-18T01:08:05;25.15;;;22.45;;
47349;SDS011;33088;51.982;5.872;2022-08-18T01:10:34;27.52;;;23.33;;
47349;SDS011;33088;51.982;5.872;2022-08-18T01:13:00;30.23;;;25.42;;
47349;SDS011;33088;51.982;5.872;2022-08-18T01:15:26;30.80;;;23.85;;
47349;SDS011;33088;51.982;5.872;2022-08-18T01:17:54;25.25;;;22.60;;
47349;SDS011;33088;51.982;5.872;2022-08-18T01:20:44;33.35;;;24.48;;
47349;SDS011;33088;51.982;5.872;2022-08-18T01:24:03;25.08;;;20.05;;
47349;SDS011;33088;51.982;5.872;2022-08-18T01:26:31;22.20;;;19.83;;
47349;SDS011;33088;51.982;5.872;2022-08-18T01:29:04;24.15;;;21.23;;
47349;SDS011;33088;51.982;5.872;2022-08-18T01:34:14;19.92;;;17.95;;
47349;SDS011;33088;51.982;5.872;2022-08-18T01:36:40;20.38;;;17.67;;
47349;SDS011;33088;51.982;5.872;2022-08-18T01:39:08;23.30;;;18.30;;
47349;SDS011;33088;51.982;5.872;2022-08-18T01:41:36;22.23;;;18.45;;
47349;SDS011;33088;51.982;5.872;2022-08-18T01:44:03;18.25;;;16.45;;
47349;SDS011;33088;51.982;5.872;2022-08-18T01:46:31;18.23;;;15.85;;
47349;SDS011;33088;51.982;5.872;2022-08-18T01:48:58;16.08;;;14.40;;
47349;SDS011;33088;51.982;5.872;2022-08-18T01:51:25;18.90;;;15.93;;
47349;SDS011;33088;51.982;5.872;2022-08-18T01:53:54;16.40;;;14.50;;
47349;SDS011;33088;51.982;5.872;2022-08-18T01:56:20;16.20;;;14.55;;
47349;SDS011;33088;51.982;5.872;2022-08-18T01:58:46;19.85;;;16.73;;
47349;SDS011;33088;51.982;5.872;2022-08-18T02:01:13;20.83;;;17.55;;
47349;SDS011;33088;51.982;5.872;2022-08-18T02:03:40;19.00;;;16.90;;
47349;SDS011;33088;51.982;5.872;2022-08-18T02:06:12;18.30;;;15.32;;
47349;SDS011;33088;51.982;5.872;2022-08-18T02:08:39;19.33;;;16.50;;
47349;SDS011;33088;51.982;5.872;2022-08-18T02:11:05;20.92;;;17.30;;
47349;SDS011;33088;51.982;5.872;2022-08-18T02:13:31;21.08;;;17.38;;
47349;SDS011;33088;51.982;5.872;2022-08-18T02:15:58;19.42;;;16.23;;
47349;SDS011;33088;51.982;5.872;2022-08-18T02:18:26;18.55;;;16.55;;
47349;SDS011;33088;51.982;5.872;2022-08-18T02:20:55;18.85;;;14.85;;
47349;SDS011;33088;51.982;5.872;2022-08-18T02:23:22;23.25;;;16.42;;
47349;SDS011;33088;51.982;5.872;2022-08-18T02:25:49;21.27;;;17.33;;
47349;SDS011;33088;51.982;5.872;2022-08-18T02:28:15;16.25;;;14.55;;
47349;SDS011;33088;51.982;5.872;2022-08-18T02:30:41;20.25;;;15.57;;
47349;SDS011;33088;51.982;5.872;2022-08-18T02:33:08;18.00;;;13.70;;
47349;SDS011;33088;51.982;5.872;2022-08-18T02:35:34;15.15;;;13.50;;
47349;SDS011;33088;51.982;5.872;2022-08-18T02:38:02;17.17;;;14.40;;
47349;SDS011;33088;51.982;5.872;2022-08-18T02:40:29;17.88;;;15.93;;
47349;SDS011;33088;51.982;5.872;2022-08-18T02:42:57;16.95;;;14.95;;
47349;SDS011;33088;51.982;5.872;2022-08-18T02:45:24;14.10;;;12.70;;
47349;SDS011;33088;51.982;5.872;2022-08-18T02:47:53;15.10;;;12.80;;
47349;SDS011;33088;51.982;5.872;2022-08-18T02:50:20;17.02;;;14.25;;
47349;SDS011;33088;51.982;5.872;2022-08-18T02:52:47;16.08;;;13.45;;
47349;SDS011;33088;51.982;5.872;2022-08-18T02:55:13;16.35;;;14.10;;
47349;SDS011;33088;51.982;5.872;2022-08-18T02:57:43;17.17;;;14.05;;
47349;SDS011;33088;51.982;5.872;2022-08-18T03:00:15;14.55;;;13.10;;
47349;SDS011;33088;51.982;5.872;2022-08-18T03:02:46;17.60;;;14.75;;
47349;SDS011;33088;51.982;5.872;2022-08-18T03:05:13;16.95;;;13.45;;
47349;SDS011;33088;51.982;5.872;2022-08-18T03:07:39;17.25;;;12.77;;
47349;SDS011;33088;51.982;5.872;2022-08-18T03:10:05;20.35;;;13.30;;
47349;SDS011;33088;51.982;5.872;2022-08-18T03:12:31;15.93;;;13.57;;
47349;SDS011;33088;51.982;5.872;2022-08-18T03:14:56;12.50;;;11.25;;
47349;SDS011;33088;51.982;5.872;2022-08-18T03:17:22;17.23;;;11.43;;
47349;SDS011;33088;51.982;5.872;2022-08-18T03:19:48;14.10;;;11.35;;
47349;SDS011;33088;51.982;5.872;2022-08-18T03:22:13;11.77;;;10.65;;
47349;SDS011;33088;51.982;5.872;2022-08-18T03:24:39;16.85;;;11.35;;
47349;SDS011;33088;51.982;5.872;2022-08-18T03:27:05;14.98;;;10.00;;
47349;SDS011;33088;51.982;5.872;2022-08-18T03:29:32;13.48;;;11.52;;
47349;SDS011;33088;51.982;5.872;2022-08-18T03:32:03;15.52;;;11.25;;
47349;SDS011;33088;51.982;5.872;2022-08-18T03:34:29;13.15;;;11.63;;
47349;SDS011;33088;51.982;5.872;2022-08-18T03:36:56;13.60;;;10.93;;
47349;SDS011;33088;51.982;5.872;2022-08-18T03:39:22;13.73;;;11.10;;
47349;SDS011;33088;51.982;5.872;2022-08-18T03:41:49;15.38;;;11.02;;
47349;SDS011;33088;51.982;5.872;2022-08-18T03:44:19;14.00;;;10.50;;
47349;SDS011;33088;51.982;5.872;2022-08-18T03:46:46;14.63;;;10.07;;
47349;SDS011;33088;51.982;5.872;2022-08-18T03:49:12;10.80;;;9.15;;
47349;SDS011;33088;51.982;5.872;2022-08-18T03:51:40;12.10;;;10.48;;
47349;SDS011;33088;51.982;5.872;2022-08-18T03:54:11;13.00;;;9.82;;
47349;SDS011;33088;51.982;5.872;2022-08-18T03:56:38;11.50;;;10.23;;
47349;SDS011;33088;51.982;5.872;2022-08-18T03:59:08;11.88;;;10.02;;
47349;SDS011;33088;51.982;5.872;2022-08-18T04:01:40;15.57;;;10.20;;
47349;SDS011;33088;51.982;5.872;2022-08-18T04:04:08;12.48;;;11.07;;
47349;SDS011;33088;51.982;5.872;2022-08-18T04:06:39;14.27;;;11.30;;
47349;SDS011;33088;51.982;5.872;2022-08-18T04:09:10;12.85;;;10.80;;
47349;SDS011;33088;51.982;5.872;2022-08-18T04:11:38;13.32;;;11.23;;
47349;SDS011;33088;51.982;5.872;2022-08-18T04:14:07;12.35;;;10.13;;
47349;SDS011;33088;51.982;5.872;2022-08-18T04:16:34;17.35;;;11.55;;
47349;SDS011;33088;51.982;5.872;2022-08-18T04:19:02;12.80;;;11.13;;
47349;SDS011;33088;51.982;5.872;2022-08-18T04:21:29;12.75;;;11.35;;
47349;SDS011;33088;51.982;5.872;2022-08-18T04:23:57;14.13;;;11.43;;
47349;SDS011;33088;51.982;5.872;2022-08-18T04:26:29;13.02;;;10.38;;
47349;SDS011;33088;51.982;5.872;2022-08-18T04:29:00;13.98;;;11.90;;
47349;SDS011;33088;51.982;5.872;2022-08-18T04:31:26;16.98;;;13.10;;
47349;SDS011;33088;51.982;5.872;2022-08-18T04:33:53;14.27;;;12.25;;
47349;SDS011;33088;51.982;5.872;2022-08-18T04:36:21;14.85;;;11.20;;
47349;SDS011;33088;51.982;5.872;2022-08-18T04:38:46;14.18;;;12.18;;
47349;SDS011;33088;51.982;5.872;2022-08-18T04:41:12;18.15;;;11.77;;
47349;SDS011;33088;51.982;5.872;2022-08-18T04:43:39;14.10;;;12.18;;
47349;SDS011;33088;51.982;5.872;2022-08-18T04:46:06;13.80;;;10.18;;
47349;SDS011;33088;51.982;5.872;2022-08-18T04:48:33;14.13;;;11.05;;
47349;SDS011;33088;51.982;5.872;2022-08-18T04:51:11;11.90;;;10.70;;
47349;SDS011;33088;51.982;5.872;2022-08-18T04:53:40;13.30;;;11.85;;
47349;SDS011;33088;51.982;5.872;2022-08-18T04:56:23;17.58;;;13.68;;
47349;SDS011;33088;51.982;5.872;2022-08-18T04:58:57;16.08;;;13.90;;
47349;SDS011;33088;51.982;5.872;2022-08-18T05:01:32;18.00;;;14.43;;
47349;SDS011;33088;51.982;5.872;2022-08-18T05:04:00;19.30;;;13.93;;
47349;SDS011;33088;51.982;5.872;2022-08-18T05:06:27;18.85;;;15.10;;
47349;SDS011;33088;51.982;5.872;2022-08-18T05:08:53;19.20;;;15.73;;
47349;SDS011;33088;51.982;5.872;2022-08-18T05:11:21;15.93;;;14.30;;
47349;SDS011;33088;51.982;5.872;2022-08-18T05:13:48;24.42;;;16.42;;
47349;SDS011;33088;51.982;5.872;2022-08-18T05:16:16;19.27;;;16.63;;
47349;SDS011;33088;51.982;5.872;2022-08-18T05:18:42;17.50;;;14.95;;
47349;SDS011;33088;51.982;5.872;2022-08-18T05:21:09;18.42;;;15.77;;
47349;SDS011;33088;51.982;5.872;2022-08-18T05:23:43;19.20;;;16.65;;
47349;SDS011;33088;51.982;5.872;2022-08-18T05:26:11;21.23;;;15.95;;
47349;SDS011;33088;51.982;5.872;2022-08-18T05:28:38;25.00;;;17.40;;
47349;SDS011;33088;51.982;5.872;2022-08-18T05:31:08;19.08;;;15.05;;
47349;SDS011;33088;51.982;5.872;2022-08-18T05:33:36;24.45;;;16.52;;
47349;SDS011;33088;51.982;5.872;2022-08-18T05:36:04;17.10;;;14.60;;
47349;SDS011;33088;51.982;5.872;2022-08-18T05:38:50;19.60;;;15.05;;
47349;SDS011;33088;51.982;5.872;2022-08-18T05:41:33;15.50;;;13.68;;
47349;SDS011;33088;51.982;5.872;2022-08-18T05:44:02;21.70;;;14.70;;
47349;SDS011;33088;51.982;5.872;2022-08-18T05:49:10;18.63;;;13.82;;
47349;SDS011;33088;51.982;5.872;2022-08-18T05:51:39;17.65;;;11.82;;
47349;SDS011;33088;51.982;5.872;2022-08-18T05:54:08;18.15;;;13.82;;
47349;SDS011;33088;51.982;5.872;2022-08-18T05:56:53;24.73;;;14.90;;
47349;SDS011;33088;51.982;5.872;2022-08-18T05:59:27;17.98;;;11.13;;
47349;SDS011;33088;51.982;5.872;2022-08-18T06:02:03;13.27;;;11.63;;
47349;SDS011;33088;51.982;5.872;2022-08-18T06:04:41;18.08;;;13.43;;
47349;SDS011;33088;51.982;5.872;2022-08-18T06:07:19;11.88;;;10.65;;
47349;SDS011;33088;51.982;5.872;2022-08-18T06:09:53;15.43;;;11.00;;
47349;SDS011;33088;51.982;5.872;2022-08-18T06:12:21;15.10;;;12.20;;
47349;SDS011;33088;51.982;5.872;2022-08-18T06:21:25;13.07;;;10.57;;
47349;SDS011;33088;51.982;5.872;2022-08-18T06:23:53;12.18;;;9.80;;
47349;SDS011;33088;51.982;5.872;2022-08-18T06:40:24;13.73;;;9.90;;
47349;SDS011;33088;51.982;5.872;2022-08-18T06:42:52;9.95;;;8.65;;
47349;SDS011;33088;51.982;5.872;2022-08-18T06:45:18;12.65;;;9.90;;
47349;SDS011;33088;51.982;5.872;2022-08-18T06:47:54;10.90;;;8.10;;
47349;SDS011;33088;51.982;5.872;2022-08-18T06:50:27;11.38;;;8.43;;
47349;SDS011;33088;51.982;5.872;2022-08-18T06:53:02;9.95;;;8.30;;
47349;SDS011;33088;51.982;5.872;2022-08-18T06:55:35;14.88;;;9.07;;
47349;SDS011;33088;51.982;5.872;2022-08-18T06:58:02;10.88;;;9.32;;
47349;SDS011;33088;51.982;5.872;2022-08-18T07:03:18;12.70;;;8.05;;
47349;SDS011;33088;51.982;5.872;2022-08-18T07:06:05;9.98;;;8.40;;
47349;SDS011;33088;51.982;5.872;2022-08-18T07:08:44;9.65;;;8.43;;
47349;SDS011;33088;51.982;5.872;2022-08-18T07:11:18;11.05;;;8.70;;
47349;SDS011;33088;51.982;5.872;2022-08-18T07:13:52;10.25;;;7.60;;
47349;SDS011;33088;51.982;5.872;2022-08-18T07:18:54;12.27;;;8.48;;
47349;SDS011;33088;51.982;5.872;2022-08-18T07:21:31;10.15;;;7.07;;
47349;SDS011;33088;51.982;5.872;2022-08-18T07:24:00;9.43;;;6.88;;
47349;SDS011;33088;51.982;5.872;2022-08-18T07:26:30;8.20;;;7.13;;
47349;SDS011;33088;51.982;5.872;2022-08-18T07:29:15;11.80;;;7.40;;
47349;SDS011;33088;51.982;5.872;2022-08-18T07:31:42;8.63;;;6.63;;
47349;SDS011;33088;51.982;5.872;2022-08-18T07:36:47;8.60;;;6.32;;
47349;SDS011;33088;51.982;5.872;2022-08-18T07:39:21;9.90;;;5.68;;
47349;SDS011;33088;51.982;5.872;2022-08-18T07:43:02;8.05;;;6.22;;
47349;SDS011;33088;51.982;5.872;2022-08-18T07:45:22;8.10;;;5.53;;
47349;SDS011;33088;51.982;5.872;2022-08-18T07:48:06;10.10;;;5.38;;
47349;SDS011;33088;51.982;5.872;2022-08-18T07:50:41;8.05;;;6.30;;
47349;SDS011;33088;51.982;5.872;2022-08-18T07:55:42;9.93;;;6.38;;
47349;SDS011;33088;51.982;5.872;2022-08-18T08:06:31;13.32;;;5.55;;
47349;SDS011;33088;51.982;5.872;2022-08-18T08:11:55;9.85;;;5.65;;
47349;SDS011;33088;51.982;5.872;2022-08-18T08:14:31;6.18;;;5.60;;
47349;SDS011;33088;51.982;5.872;2022-08-18T08:20:15;9.20;;;5.50;;
47349;SDS011;33088;51.982;5.872;2022-08-18T08:23:08;9.45;;;5.00;;
47349;SDS011;33088;51.982;5.872;2022-08-18T08:28:42;8.25;;;5.13;;
47349;SDS011;33088;51.982;5.872;2022-08-18T08:31:36;7.95;;;5.63;;
47349;SDS011;33088;51.982;5.872;2022-08-18T08:34:15;6.15;;;5.18;;
47349;SDS011;33088;51.982;5.872;2022-08-18T08:36:46;6.40;;;5.22;;
47349;SDS011;33088;51.982;5.872;2022-08-18T08:39:18;6.43;;;4.97;;
47349;SDS011;33088;51.982;5.872;2022-08-18T08:42:03;7.90;;;6.30;;
47349;SDS011;33088;51.982;5.872;2022-08-18T08:45:10;10.82;;;6.07;;
47349;SDS011;33088;51.982;5.872;2022-08-18T08:47:56;5.90;;;5.32;;
47349;SDS011;33088;51.982;5.872;2022-08-18T08:50:32;7.55;;;5.53;;
47349;SDS011;33088;51.982;5.872;2022-08-18T08:53:10;7.87;;;5.53;;
47349;SDS011;33088;51.982;5.872;2022-08-18T08:55:42;6.93;;;4.80;;
47349;SDS011;33088;51.982;5.872;2022-08-18T09:01:00;10.00;;;5.50;;
47349;SDS011;33088;51.982;5.872;2022-08-18T09:03:34;6.90;;;6.10;;
47349;SDS011;33088;51.982;5.872;2022-08-18T09:23:04;5.15;;;4.07;;
47349;SDS011;33088;51.982;5.872;2022-08-18T09:38:51;9.68;;;3.20;;
47349;SDS011;33088;51.982;5.872;2022-08-18T09:41:48;5.63;;;3.10;;
47349;SDS011;33088;51.982;5.872;2022-08-18T09:45:04;4.88;;;3.25;;
47349;SDS011;33088;51.982;5.872;2022-08-18T09:47:10;3.83;;;3.15;;
47349;SDS011;33088;51.982;5.872;2022-08-18T09:52:47;6.10;;;3.92;;
47349;SDS011;33088;51.982;5.872;2022-08-18T09:57:42;4.18;;;3.28;;
47349;SDS011;33088;51.982;5.872;2022-08-18T10:24:36;4.93;;;2.88;;
47349;SDS011;33088;51.982;5.872;2022-08-18T10:27:10;7.05;;;3.50;;
47349;SDS011;33088;51.982;5.872;2022-08-18T10:29:56;6.30;;;3.95;;
47349;SDS011;33088;51.982;5.872;2022-08-18T10:32:23;6.50;;;3.83;;
47349;SDS011;33088;51.982;5.872;2022-08-18T10:35:01;8.75;;;4.68;;
47349;SDS011;33088;51.982;5.872;2022-08-18T10:37:38;3.45;;;3.15;;
47349;SDS011;33088;51.982;5.872;2022-08-18T10:45:07;3.50;;;3.20;;
47349;SDS011;33088;51.982;5.872;2022-08-18T10:47:34;6.03;;;4.57;;
47349;SDS011;33088;51.982;5.872;2022-08-18T10:50:02;7.40;;;3.42;;
47349;SDS011;33088;51.982;5.872;2022-08-18T10:52:39;5.32;;;3.63;;
47349;SDS011;33088;51.982;5.872;2022-08-18T10:55:12;4.13;;;3.40;;
47349;SDS011;33088;51.982;5.872;2022-08-18T11:00:40;4.35;;;3.95;;
47349;SDS011;33088;51.982;5.872;2022-08-18T11:03:27;4.15;;;3.75;;
47349;SDS011;33088;51.982;5.872;2022-08-18T11:06:16;4.63;;;3.25;;
47349;SDS011;33088;51.982;5.872;2022-08-18T11:08:49;5.65;;;3.38;;
47349;SDS011;33088;51.982;5.872;2022-08-18T11:11:21;4.05;;;2.55;;
47349;SDS011;33088;51.982;5.872;2022-08-18T11:17:19;6.18;;;3.80;;
47349;SDS011;33088;51.982;5.872;2022-08-18T11:19:37;5.40;;;3.75;;
47349;SDS011;33088;51.982;5.872;2022-08-18T11:22:04;4.18;;;3.33;;
47349;SDS011;33088;51.982;5.872;2022-08-18T11:24:30;4.22;;;3.80;;
47349;SDS011;33088;51.982;5.872;2022-08-18T11:27:01;5.43;;;3.60;;
47349;SDS011;33088;51.982;5.872;2022-08-18T11:29:33;7.05;;;4.75;;
47349;SDS011;33088;51.982;5.872;2022-08-18T11:34:44;5.63;;;4.88;;
47349;SDS011;33088;51.982;5.872;2022-08-18T11:37:28;7.40;;;4.32;;
47349;SDS011;33088;51.982;5.872;2022-08-18T11:40:00;7.28;;;4.57;;
47349;SDS011;33088;51.982;5.872;2022-08-18T11:42:30;7.72;;;4.85;;
47349;SDS011;33088;51.982;5.872;2022-08-18T11:45:59;5.97;;;4.60;;
47349;SDS011;33088;51.982;5.872;2022-08-18T11:48:01;9.23;;;5.78;;
47349;SDS011;33088;51.982;5.872;2022-08-18T11:50:29;7.78;;;5.13;;
47349;SDS011;33088;51.982;5.872;2022-08-18T11:52:56;5.90;;;4.97;;
47349;SDS011;33088;51.982;5.872;2022-08-18T11:55:35;5.20;;;4.45;;
47349;SDS011;33088;51.982;5.872;2022-08-18T11:58:02;6.68;;;4.65;;
47349;SDS011;33088;51.982;5.872;2022-08-18T12:03:07;7.43;;;4.20;;
47349;SDS011;33088;51.982;5.872;2022-08-18T12:05:40;8.07;;;5.57;;
47349;SDS011;33088;51.982;5.872;2022-08-18T12:08:19;8.30;;;4.82;;
47349;SDS011;33088;51.982;5.872;2022-08-18T12:11:13;7.55;;;4.78;;
47349;SDS011;33088;51.982;5.872;2022-08-18T12:13:46;6.97;;;4.85;;
47349;SDS011;33088;51.982;5.872;2022-08-18T12:16:40;8.93;;;5.22;;
47349;SDS011;33088;51.982;5.872;2022-08-18T12:19:07;5.32;;;4.03;;
47349;SDS011;33088;51.982;5.872;2022-08-18T12:21:40;7.22;;;5.28;;
47349;SDS011;33088;51.982;5.872;2022-08-18T12:24:28;7.03;;;4.80;;
47349;SDS011;33088;51.982;5.872;2022-08-18T12:26:55;3.90;;;3.58;;
47349;SDS011;33088;51.982;5.872;2022-08-18T12:29:22;7.18;;;4.47;;
47349;SDS011;33088;51.982;5.872;2022-08-18T12:31:50;7.13;;;3.97;;
47349;SDS011;33088;51.982;5.872;2022-08-18T12:34:18;6.32;;;3.97;;
47349;SDS011;33088;51.982;5.872;2022-08-18T12:36:51;4.18;;;3.75;;
47349;SDS011;33088;51.982;5.872;2022-08-18T12:39:20;5.13;;;3.88;;
47349;SDS011;33088;51.982;5.872;2022-08-18T12:41:46;4.82;;;3.97;;
47349;SDS011;33088;51.982;5.872;2022-08-18T12:44:12;3.47;;;3.17;;
47349;SDS011;33088;51.982;5.872;2022-08-18T12:46:39;4.50;;;3.42;;
47349;SDS011;33088;51.982;5.872;2022-08-18T12:49:06;3.90;;;3.45;;
47349;SDS011;33088;51.982;5.872;2022-08-18T12:51:38;4.38;;;3.47;;
47349;SDS011;33088;51.982;5.872;2022-08-18T12:54:04;4.32;;;3.50;;
47349;SDS011;33088;51.982;5.872;2022-08-18T12:56:29;4.30;;;3.90;;
47349;SDS011;33088;51.982;5.872;2022-08-18T12:58:59;7.57;;;4.45;;
47349;SDS011;33088;51.982;5.872;2022-08-18T13:03:53;4.72;;;4.00;;
47349;SDS011;33088;51.982;5.872;2022-08-18T13:06:24;6.20;;;4.40;;
47349;SDS011;33088;51.982;5.872;2022-08-18T13:08:50;4.53;;;4.13;;
47349;SDS011;33088;51.982;5.872;2022-08-18T13:11:20;4.78;;;4.03;;
47349;SDS011;33088;51.982;5.872;2022-08-18T13:13:47;5.53;;;4.32;;
47349;SDS011;33088;51.982;5.872;2022-08-18T13:16:13;7.93;;;4.30;;
47349;SDS011;33088;51.982;5.872;2022-08-18T13:18:42;4.80;;;4.20;;
47349;SDS011;33088;51.982;5.872;2022-08-18T13:21:12;4.80;;;3.72;;
47349;SDS011;33088;51.982;5.872;2022-08-18T13:23:39;4.20;;;3.30;;
47349;SDS011;33088;51.982;5.872;2022-08-18T13:26:05;3.70;;;3.40;;
47349;SDS011;33088;51.982;5.872;2022-08-18T13:28:34;4.00;;;3.58;;
47349;SDS011;33088;51.982;5.872;2022-08-18T13:31:00;5.60;;;3.90;;
47349;SDS011;33088;51.982;5.872;2022-08-18T13:33:27;5.25;;;3.50;;
47349;SDS011;33088;51.982;5.872;2022-08-18T13:35:54;6.70;;;3.85;;
47349;SDS011;33088;51.982;5.872;2022-08-18T13:38:19;4.78;;;3.78;;
47349;SDS011;33088;51.982;5.872;2022-08-18T13:40:48;5.00;;;4.30;;
47349;SDS011;33088;51.982;5.872;2022-08-18T13:43:15;4.93;;;4.50;;
47349;SDS011;33088;51.982;5.872;2022-08-18T13:45:44;5.03;;;4.63;;
47349;SDS011;33088;51.982;5.872;2022-08-18T13:48:13;4.75;;;4.35;;
47349;SDS011;33088;51.982;5.872;2022-08-18T13:50:40;5.85;;;3.97;;
47349;SDS011;33088;51.982;5.872;2022-08-18T13:53:11;8.73;;;4.60;;
47349;SDS011;33088;51.982;5.872;2022-08-18T13:55:40;5.47;;;5.00;;
47349;SDS011;33088;51.982;5.872;2022-08-18T13:58:06;4.45;;;3.88;;
47349;SDS011;33088;51.982;5.872;2022-08-18T14:00:32;9.65;;;5.03;;
47349;SDS011;33088;51.982;5.872;2022-08-18T14:02:58;4.45;;;3.70;;
47349;SDS011;33088;51.982;5.872;2022-08-18T14:05:24;5.15;;;3.80;;
47349;SDS011;33088;51.982;5.872;2022-08-18T14:07:50;7.93;;;4.53;;
47349;SDS011;33088;51.982;5.872;2022-08-18T14:10:16;4.88;;;4.22;;
47349;SDS011;33088;51.982;5.872;2022-08-18T14:12:42;5.32;;;4.70;;
47349;SDS011;33088;51.982;5.872;2022-08-18T14:15:10;5.55;;;5.05;;
47349;SDS011;33088;51.982;5.872;2022-08-18T14:17:38;7.47;;;5.97;;
47349;SDS011;33088;51.982;5.872;2022-08-18T14:20:04;5.85;;;4.53;;
47349;SDS011;33088;51.982;5.872;2022-08-18T14:22:50;7.93;;;4.88;;
47349;SDS011;33088;51.982;5.872;2022-08-18T14:25:39;5.68;;;4.20;;
47349;SDS011;33088;51.982;5.872;2022-08-18T14:28:23;8.90;;;4.88;;
47349;SDS011;33088;51.982;5.872;2022-08-18T14:30:49;7.60;;;4.35;;
47349;SDS011;33088;51.982;5.872;2022-08-18T14:33:16;7.82;;;5.20;;
47349;SDS011;33088;51.982;5.872;2022-08-18T14:35:44;6.25;;;4.65;;
47349;SDS011;33088;51.982;5.872;2022-08-18T14:38:11;5.50;;;4.93;;
47349;SDS011;33088;51.982;5.872;2022-08-18T14:40:42;5.25;;;4.57;;
47349;SDS011;33088;51.982;5.872;2022-08-18T14:43:10;6.50;;;4.57;;
47349;SDS011;33088;51.982;5.872;2022-08-18T14:45:37;5.65;;;4.25;;
47349;SDS011;33088;51.982;5.872;2022-08-18T14:48:03;4.07;;;3.63;;
47349;SDS011;33088;51.982;5.872;2022-08-18T14:50:30;4.25;;;3.85;;
47349;SDS011;33088;51.982;5.872;2022-08-18T14:52:56;4.28;;;3.92;;
47349;SDS011;33088;51.982;5.872;2022-08-18T14:55:22;9.63;;;4.82;;
47349;SDS011;33088;51.982;5.872;2022-08-18T14:57:48;4.20;;;3.72;;
47349;SDS011;33088;51.982;5.872;2022-08-18T15:00:16;4.47;;;3.58;;
47349;SDS011;33088;51.982;5.872;2022-08-18T15:02:43;4.55;;;3.83;;
47349;SDS011;33088;51.982;5.872;2022-08-18T15:05:11;5.93;;;3.97;;
47349;SDS011;33088;51.982;5.872;2022-08-18T15:07:37;4.50;;;4.10;;
47349;SDS011;33088;51.982;5.872;2022-08-18T15:10:07;3.83;;;3.42;;
47349;SDS011;33088;51.982;5.872;2022-08-18T15:12:35;4.65;;;3.60;;
47349;SDS011;33088;51.982;5.872;2022-08-18T15:15:03;5.97;;;3.40;;
47349;SDS011;33088;51.982;5.872;2022-08-18T15:17:30;4.28;;;3.33;;
47349;SDS011;33088;51.982;5.872;2022-08-18T15:19:56;3.97;;;3.58;;
47349;SDS011;33088;51.982;5.872;2022-08-18T15:22:22;5.40;;;4.10;;
47349;SDS011;33088;51.982;5.872;2022-08-18T15:25:06;4.45;;;3.88;;
47349;SDS011;33088;51.982;5.872;2022-08-18T15:27:55;6.05;;;3.80;;
47349;SDS011;33088;51.982;5.872;2022-08-18T15:30:21;4.88;;;3.22;;
47349;SDS011;33088;51.982;5.872;2022-08-18T15:32:48;5.38;;;3.85;;
47349;SDS011;33088;51.982;5.872;2022-08-18T15:35:14;5.43;;;3.63;;
47349;SDS011;33088;51.982;5.872;2022-08-18T15:37:41;4.13;;;3.40;;
47349;SDS011;33088;51.982;5.872;2022-08-18T15:40:11;6.53;;;3.55;;
47349;SDS011;33088;51.982;5.872;2022-08-18T15:42:45;5.47;;;4.00;;
47349;SDS011;33088;51.982;5.872;2022-08-18T15:45:21;6.05;;;3.50;;
47349;SDS011;33088;51.982;5.872;2022-08-18T15:47:50;4.47;;;3.83;;
47349;SDS011;33088;51.982;5.872;2022-08-18T15:50:16;5.95;;;3.70;;
47349;SDS011;33088;51.982;5.872;2022-08-18T15:52:47;7.03;;;3.58;;
47349;SDS011;33088;51.982;5.872;2022-08-18T15:55:18;3.60;;;3.30;;
47349;SDS011;33088;51.982;5.872;2022-08-18T15:57:46;4.18;;;3.15;;
47349;SDS011;33088;51.982;5.872;2022-08-18T16:00:13;4.10;;;3.75;;
47349;SDS011;33088;51.982;5.872;2022-08-18T16:02:47;8.48;;;3.42;;
47349;SDS011;33088;51.982;5.872;2022-08-18T16:05:26;3.60;;;3.25;;
47349;SDS011;33088;51.982;5.872;2022-08-18T16:07:56;4.27;;;3.17;;
47349;SDS011;33088;51.982;5.872;2022-08-18T16:10:25;4.60;;;3.42;;
47349;SDS011;33088;51.982;5.872;2022-08-18T16:12:54;5.20;;;3.40;;
47349;SDS011;33088;51.982;5.872;2022-08-18T16:15:21;3.10;;;2.90;;
47349;SDS011;33088;51.982;5.872;2022-08-18T16:17:49;3.58;;;3.00;;
47349;SDS011;33088;51.982;5.872;2022-08-18T16:20:17;4.43;;;3.22;;
47349;SDS011;33088;51.982;5.872;2022-08-18T16:22:53;3.67;;;3.10;;
47349;SDS011;33088;51.982;5.872;2022-08-18T16:25:21;4.93;;;3.63;;
47349;SDS011;33088;51.982;5.872;2022-08-18T16:27:47;10.20;;;4.00;;
47349;SDS011;33088;51.982;5.872;2022-08-18T16:30:20;3.95;;;3.47;;
47349;SDS011;33088;51.982;5.872;2022-08-18T16:32:48;4.03;;;3.67;;
47349;SDS011;33088;51.982;5.872;2022-08-18T16:35:14;5.05;;;2.72;;
47349;SDS011;33088;51.982;5.872;2022-08-18T16:37:42;5.47;;;3.58;;
47349;SDS011;33088;51.982;5.872;2022-08-18T16:40:09;4.13;;;3.20;;
47349;SDS011;33088;51.982;5.872;2022-08-18T16:42:35;4.60;;;3.10;;
47349;SDS011;33088;51.982;5.872;2022-08-18T16:45:02;6.53;;;3.75;;
47349;SDS011;33088;51.982;5.872;2022-08-18T16:47:28;7.20;;;3.50;;
47349;SDS011;33088;51.982;5.872;2022-08-18T16:49:56;6.05;;;3.38;;
47349;SDS011;33088;51.982;5.872;2022-08-18T16:52:22;5.53;;;4.18;;
47349;SDS011;33088;51.982;5.872;2022-08-18T16:54:48;4.00;;;3.28;;
47349;SDS011;33088;51.982;5.872;2022-08-18T16:57:14;5.32;;;3.38;;
47349;SDS011;33088;51.982;5.872;2022-08-18T17:00:03;8.57;;;3.55;;
47349;SDS011;33088;51.982;5.872;2022-08-18T17:02:48;4.53;;;3.13;;
47349;SDS011;33088;51.982;5.872;2022-08-18T17:05:32;4.38;;;3.95;;
47349;SDS011;33088;51.982;5.872;2022-08-18T17:07:59;3.72;;;3.13;;
47349;SDS011;33088;51.982;5.872;2022-08-18T17:10:25;3.08;;;2.63;;
47349;SDS011;33088;51.982;5.872;2022-08-18T17:12:51;4.28;;;2.75;;